AAY226 KLIT-KOKC
Flight info
| Callsign | AAY226 |
|---|---|
| Flight time | 1h 1m |
| Altitude | 26000 |
| Route | LESME DWINE RIFFL3 |
| Aircraft | A320/M-SDE3FGHIRWY/LB1 |
Departure
| Time | 2026-04-20 04:33 |
|---|---|
| Airport | Bill & Hillary Clinton National Airport/Adams Field (KLIT) |
Arrival
| Time | 2026-04-20 05:34 |
|---|---|
| Airport | OKC Will Rogers World Airport (KOKC) |
| Time | Latitude | Longitude | Altitude | Speed | Heading |
|---|---|---|---|---|---|
| 2026-04-20 04:00 | 34.73110 | -92.21916 | 267 ft | 0 kts | 230° |
| 2026-04-20 04:21 | 34.73113 | -92.21912 | 267 ft | 2 kts | 230° |
| 2026-04-20 04:21 | 34.73123 | -92.21897 | 268 ft | 2 kts | 230° |
| 2026-04-20 04:22 | 34.73133 | -92.21881 | 268 ft | 2 kts | 230° |
| 2026-04-20 04:22 | 34.73145 | -92.21866 | 268 ft | 3 kts | 204° |
| 2026-04-20 04:22 | 34.73162 | -92.21861 | 268 ft | 2 kts | 169° |
| 2026-04-20 04:22 | 34.73178 | -92.21868 | 269 ft | 3 kts | 134° |
| 2026-04-20 04:23 | 34.73188 | -92.21885 | 269 ft | 3 kts | 99° |
| 2026-04-20 04:23 | 34.73190 | -92.21906 | 269 ft | 2 kts | 93° |
| 2026-04-20 04:23 | 34.73190 | -92.21921 | 269 ft | 0 kts | 103° |
| 2026-04-20 04:26 | 34.73187 | -92.21908 | 269 ft | 7 kts | 106° |
| 2026-04-20 04:27 | 34.73167 | -92.21839 | 268 ft | 8 kts | 113° |
| 2026-04-20 04:27 | 34.73127 | -92.21787 | 267 ft | 9 kts | 147° |
| 2026-04-20 04:27 | 34.73090 | -92.21741 | 268 ft | 6 kts | 121° |
| 2026-04-20 04:27 | 34.73066 | -92.21680 | 269 ft | 11 kts | 115° |
| 2026-04-20 04:28 | 34.73033 | -92.21591 | 267 ft | 12 kts | 114° |
| 2026-04-20 04:28 | 34.72996 | -92.21492 | 264 ft | 14 kts | 115° |
| 2026-04-20 04:28 | 34.72951 | -92.21372 | 259 ft | 18 kts | 113° |
| 2026-04-20 04:28 | 34.72899 | -92.21230 | 256 ft | 19 kts | 114° |
| 2026-04-20 04:29 | 34.72924 | -92.21120 | 256 ft | 14 kts | 47° |
| 2026-04-20 04:29 | 34.72992 | -92.21032 | 256 ft | 14 kts | 46° |
| 2026-04-20 04:29 | 34.73064 | -92.20943 | 256 ft | 15 kts | 47° |
| 2026-04-20 04:29 | 34.73130 | -92.20857 | 258 ft | 13 kts | 46° |
| 2026-04-20 04:30 | 34.73185 | -92.20789 | 259 ft | 10 kts | 46° |
| 2026-04-20 04:30 | 34.73239 | -92.20720 | 259 ft | 15 kts | 46° |
| 2026-04-20 04:30 | 34.73321 | -92.20615 | 260 ft | 18 kts | 45° |
| 2026-04-20 04:30 | 34.73408 | -92.20495 | 259 ft | 21 kts | 52° |
| 2026-04-20 04:31 | 34.73494 | -92.20357 | 257 ft | 20 kts | 53° |
| 2026-04-20 04:31 | 34.73546 | -92.20272 | 256 ft | 11 kts | 58° |
| 2026-04-20 04:31 | 34.73534 | -92.20189 | 255 ft | 10 kts | 133° |
| 2026-04-20 04:31 | 34.73481 | -92.20166 | 257 ft | 6 kts | 193° |
| 2026-04-20 04:32 | 34.73456 | -92.20187 | 258 ft | 3 kts | 222° |
| 2026-04-20 04:32 | 34.73442 | -92.20205 | 258 ft | 6 kts | 225° |
| 2026-04-20 04:32 | 34.73325 | -92.20355 | 259 ft | 59 kts | 226° |
| 2026-04-20 04:32 | 34.72874 | -92.20927 | 256 ft | 126 kts | 226° |
| 2026-04-20 04:33 | 34.72168 | -92.21831 | 542 ft | 149 kts | 226° |
| 2026-04-20 04:33 | 34.71475 | -92.22724 | 1327 ft | 147 kts | 227° |
| 2026-04-20 04:33 | 34.70755 | -92.23655 | 1928 ft | 155 kts | 229° |
| 2026-04-20 04:33 | 34.69996 | -92.24698 | 2316 ft | 176 kts | 236° |
| 2026-04-20 04:34 | 34.69438 | -92.26096 | 2672 ft | 194 kts | 258° |
| 2026-04-20 04:34 | 34.69345 | -92.27797 | 2940 ft | 218 kts | 281° |
| 2026-04-20 04:34 | 34.69847 | -92.29636 | 3332 ft | 242 kts | 297° |
| 2026-04-20 04:34 | 34.70635 | -92.31527 | 4023 ft | 256 kts | 301° |
| 2026-04-20 04:35 | 34.71513 | -92.33439 | 4978 ft | 260 kts | 301° |
| 2026-04-20 04:35 | 34.72262 | -92.35448 | 6016 ft | 263 kts | 291° |
| 2026-04-20 04:35 | 34.72722 | -92.37607 | 7017 ft | 266 kts | 284° |
| 2026-04-20 04:35 | 34.73051 | -92.39827 | 7953 ft | 268 kts | 282° |
| 2026-04-20 04:36 | 34.73632 | -92.44331 | 9841 ft | 272 kts | 281° |
| 2026-04-20 04:36 | 34.73935 | -92.46644 | 10427 ft | 288 kts | 281° |
| 2026-04-20 04:36 | 34.74275 | -92.49146 | 10805 ft | 308 kts | 281° |
| 2026-04-20 04:37 | 34.74633 | -92.51738 | 11528 ft | 313 kts | 281° |
| 2026-04-20 04:37 | 34.74999 | -92.54362 | 12376 ft | 315 kts | 281° |
| 2026-04-20 04:37 | 34.75369 | -92.57003 | 13246 ft | 317 kts | 281° |
| 2026-04-20 04:37 | 34.75739 | -92.59649 | 14092 ft | 319 kts | 281° |
| 2026-04-20 04:38 | 34.76110 | -92.62313 | 14833 ft | 320 kts | 281° |
| 2026-04-20 04:38 | 34.76481 | -92.64984 | 15581 ft | 321 kts | 280° |
| 2026-04-20 04:38 | 34.76847 | -92.67628 | 16322 ft | 322 kts | 280° |
| 2026-04-20 04:38 | 34.77221 | -92.70321 | 17073 ft | 323 kts | 280° |
| 2026-04-20 04:39 | 34.77597 | -92.73022 | 17808 ft | 325 kts | 279° |
| 2026-04-20 04:39 | 34.77975 | -92.75735 | 18552 ft | 326 kts | 279° |
| 2026-04-20 04:39 | 34.78353 | -92.78457 | 19184 ft | 327 kts | 279° |
| 2026-04-20 04:39 | 34.78733 | -92.81193 | 19795 ft | 329 kts | 279° |
| 2026-04-20 04:40 | 34.79112 | -92.83940 | 20394 ft | 331 kts | 279° |
| 2026-04-20 04:40 | 34.79493 | -92.86708 | 21000 ft | 332 kts | 278° |
| 2026-04-20 04:40 | 34.79876 | -92.89488 | 21592 ft | 334 kts | 278° |
| 2026-04-20 04:40 | 34.80260 | -92.92278 | 22171 ft | 336 kts | 278° |
| 2026-04-20 04:41 | 34.80646 | -92.95084 | 22745 ft | 337 kts | 278° |
| 2026-04-20 04:41 | 34.81034 | -92.97911 | 23302 ft | 339 kts | 278° |
| 2026-04-20 04:41 | 34.81422 | -93.00753 | 23857 ft | 341 kts | 278° |
| 2026-04-20 04:41 | 34.81812 | -93.03618 | 24293 ft | 344 kts | 278° |
| 2026-04-20 04:42 | 34.82204 | -93.06492 | 24749 ft | 345 kts | 278° |
| 2026-04-20 04:42 | 34.82598 | -93.09381 | 25209 ft | 347 kts | 277° |
| 2026-04-20 04:42 | 34.82861 | -93.11305 | 25514 ft | 348 kts | 277° |
| 2026-04-20 04:42 | 34.83383 | -93.15161 | 26090 ft | 350 kts | 277° |
| 2026-04-20 04:43 | 34.83776 | -93.18088 | 26276 ft | 350 kts | 277° |
| 2026-04-20 04:43 | 34.84163 | -93.20961 | 26311 ft | 337 kts | 277° |
| 2026-04-20 04:43 | 34.84538 | -93.23749 | 26313 ft | 331 kts | 277° |
| 2026-04-20 04:43 | 34.84909 | -93.26512 | 26312 ft | 330 kts | 277° |
| 2026-04-20 04:44 | 34.85155 | -93.28335 | 26307 ft | 329 kts | 277° |
| 2026-04-20 04:44 | 34.85525 | -93.31084 | 26313 ft | 329 kts | 277° |
| 2026-04-20 04:44 | 34.85895 | -93.33834 | 26313 ft | 329 kts | 277° |
| 2026-04-20 04:44 | 34.86259 | -93.36577 | 26309 ft | 329 kts | 277° |
| 2026-04-20 04:45 | 34.86622 | -93.39327 | 26306 ft | 329 kts | 277° |
| 2026-04-20 04:45 | 34.86984 | -93.42077 | 26307 ft | 329 kts | 276° |
| 2026-04-20 04:45 | 34.87348 | -93.44827 | 26308 ft | 329 kts | 277° |
| 2026-04-20 04:45 | 34.87712 | -93.47575 | 26311 ft | 329 kts | 277° |
| 2026-04-20 04:46 | 34.88077 | -93.50325 | 26310 ft | 329 kts | 277° |
| 2026-04-20 04:46 | 34.88442 | -93.53079 | 26309 ft | 329 kts | 276° |
| 2026-04-20 04:46 | 34.88807 | -93.55828 | 26312 ft | 329 kts | 276° |
| 2026-04-20 04:46 | 34.89172 | -93.58578 | 26308 ft | 329 kts | 277° |
| 2026-04-20 04:47 | 34.89534 | -93.61325 | 26311 ft | 329 kts | 276° |
| 2026-04-20 04:47 | 34.89895 | -93.64076 | 26311 ft | 329 kts | 276° |
| 2026-04-20 04:47 | 34.90256 | -93.66829 | 26315 ft | 329 kts | 276° |
| 2026-04-20 04:47 | 34.90616 | -93.69580 | 26316 ft | 329 kts | 276° |
| 2026-04-20 04:48 | 34.90973 | -93.72330 | 26313 ft | 329 kts | 276° |
| 2026-04-20 04:48 | 34.91329 | -93.75084 | 26313 ft | 328 kts | 276° |
| 2026-04-20 04:48 | 34.91686 | -93.77834 | 26319 ft | 329 kts | 276° |
| 2026-04-20 04:48 | 34.92044 | -93.80584 | 26316 ft | 329 kts | 276° |
| 2026-04-20 04:49 | 34.92402 | -93.83337 | 26317 ft | 329 kts | 276° |
| 2026-04-20 04:49 | 34.92756 | -93.86053 | 26316 ft | 329 kts | 276° |
| 2026-04-20 04:49 | 34.93113 | -93.88803 | 26318 ft | 329 kts | 276° |
| 2026-04-20 04:49 | 34.93469 | -93.91553 | 26323 ft | 329 kts | 276° |
| 2026-04-20 04:50 | 34.93823 | -93.94303 | 26318 ft | 329 kts | 276° |
| 2026-04-20 04:50 | 34.94175 | -93.97060 | 26324 ft | 329 kts | 276° |
| 2026-04-20 04:50 | 34.94527 | -93.99810 | 26320 ft | 329 kts | 276° |
| 2026-04-20 04:50 | 34.94878 | -94.02562 | 26321 ft | 328 kts | 276° |
| 2026-04-20 04:51 | 34.95230 | -94.05316 | 26322 ft | 328 kts | 276° |
| 2026-04-20 04:51 | 34.95579 | -94.08065 | 26319 ft | 328 kts | 276° |
| 2026-04-20 04:51 | 34.95927 | -94.10812 | 26318 ft | 328 kts | 276° |
| 2026-04-20 04:51 | 34.96275 | -94.13562 | 26316 ft | 328 kts | 276° |
| 2026-04-20 04:52 | 34.96626 | -94.16314 | 26318 ft | 328 kts | 276° |
| 2026-04-20 04:52 | 34.96973 | -94.19063 | 26319 ft | 328 kts | 276° |
| 2026-04-20 04:52 | 34.97319 | -94.21809 | 26320 ft | 328 kts | 276° |
| 2026-04-20 04:52 | 34.97667 | -94.24558 | 26317 ft | 328 kts | 276° |
| 2026-04-20 04:53 | 34.98015 | -94.27307 | 26313 ft | 328 kts | 276° |
| 2026-04-20 04:53 | 34.98364 | -94.30060 | 26321 ft | 328 kts | 276° |
| 2026-04-20 04:53 | 34.98709 | -94.32810 | 26321 ft | 328 kts | 276° |
| 2026-04-20 04:53 | 34.99049 | -94.35559 | 26326 ft | 328 kts | 276° |
| 2026-04-20 04:54 | 34.99389 | -94.38309 | 26323 ft | 328 kts | 276° |
| 2026-04-20 04:54 | 34.99727 | -94.41058 | 26324 ft | 328 kts | 276° |
| 2026-04-20 04:54 | 35.00063 | -94.43809 | 26329 ft | 328 kts | 276° |
| 2026-04-20 04:54 | 35.00403 | -94.46562 | 26325 ft | 328 kts | 276° |
| 2026-04-20 04:55 | 35.00744 | -94.49314 | 26329 ft | 328 kts | 276° |
| 2026-04-20 04:55 | 35.01082 | -94.52029 | 26331 ft | 328 kts | 276° |
| 2026-04-20 04:55 | 35.01424 | -94.54784 | 26331 ft | 328 kts | 276° |
| 2026-04-20 04:55 | 35.01766 | -94.57530 | 26333 ft | 328 kts | 276° |
| 2026-04-20 04:56 | 35.02109 | -94.60281 | 26333 ft | 328 kts | 276° |
| 2026-04-20 04:56 | 35.02449 | -94.63032 | 26329 ft | 328 kts | 276° |
| 2026-04-20 04:56 | 35.02786 | -94.65781 | 26335 ft | 328 kts | 276° |
| 2026-04-20 04:56 | 35.03120 | -94.68532 | 26328 ft | 328 kts | 276° |
| 2026-04-20 04:57 | 35.03454 | -94.71284 | 26330 ft | 328 kts | 276° |
| 2026-04-20 04:57 | 35.03787 | -94.74036 | 26331 ft | 328 kts | 276° |
| 2026-04-20 04:57 | 35.04120 | -94.76789 | 26325 ft | 328 kts | 275° |
| 2026-04-20 04:57 | 35.04450 | -94.79542 | 26331 ft | 328 kts | 276° |
| 2026-04-20 04:58 | 35.04783 | -94.82297 | 26328 ft | 328 kts | 276° |
| 2026-04-20 04:58 | 35.05118 | -94.85050 | 26332 ft | 328 kts | 276° |
| 2026-04-20 04:58 | 35.05453 | -94.87803 | 26330 ft | 328 kts | 276° |
| 2026-04-20 04:58 | 35.05786 | -94.90558 | 26329 ft | 328 kts | 276° |
| 2026-04-20 04:59 | 35.06117 | -94.93313 | 26330 ft | 328 kts | 276° |
| 2026-04-20 04:59 | 35.06449 | -94.96066 | 26315 ft | 328 kts | 275° |
| 2026-04-20 04:59 | 35.06780 | -94.98817 | 26311 ft | 327 kts | 275° |
| 2026-04-20 04:59 | 35.07109 | -95.01566 | 26313 ft | 327 kts | 275° |
| 2026-04-20 05:00 | 35.07436 | -95.04316 | 26299 ft | 326 kts | 275° |
| 2026-04-20 05:00 | 35.07756 | -95.07029 | 26065 ft | 319 kts | 275° |
| 2026-04-20 05:00 | 35.08071 | -95.09698 | 25831 ft | 316 kts | 275° |
| 2026-04-20 05:00 | 35.08387 | -95.12346 | 25583 ft | 314 kts | 276° |
| 2026-04-20 05:01 | 35.08703 | -95.14982 | 25338 ft | 314 kts | 276° |
| 2026-04-20 05:01 | 35.09017 | -95.17613 | 25103 ft | 313 kts | 276° |
| 2026-04-20 05:01 | 35.09322 | -95.20209 | 24873 ft | 312 kts | 276° |
| 2026-04-20 05:01 | 35.09635 | -95.22861 | 24639 ft | 311 kts | 276° |
| 2026-04-20 05:02 | 35.09943 | -95.25471 | 24400 ft | 311 kts | 276° |
| 2026-04-20 05:02 | 35.10244 | -95.28047 | 24181 ft | 310 kts | 276° |
| 2026-04-20 05:02 | 35.10547 | -95.30648 | 23956 ft | 309 kts | 276° |
| 2026-04-20 05:02 | 35.10846 | -95.33245 | 23693 ft | 308 kts | 276° |
| 2026-04-20 05:03 | 35.11147 | -95.35834 | 23424 ft | 308 kts | 276° |
| 2026-04-20 05:03 | 35.11447 | -95.38422 | 23160 ft | 307 kts | 276° |
| 2026-04-20 05:03 | 35.11743 | -95.40995 | 22886 ft | 305 kts | 276° |
| 2026-04-20 05:03 | 35.12037 | -95.43559 | 22625 ft | 304 kts | 276° |
| 2026-04-20 05:04 | 35.12334 | -95.46115 | 22364 ft | 303 kts | 277° |
| 2026-04-20 05:04 | 35.12627 | -95.48662 | 22104 ft | 302 kts | 277° |
| 2026-04-20 05:04 | 35.12921 | -95.51199 | 21849 ft | 301 kts | 277° |
| 2026-04-20 05:04 | 35.13214 | -95.53731 | 21593 ft | 300 kts | 277° |
| 2026-04-20 05:05 | 35.13500 | -95.56251 | 21342 ft | 299 kts | 277° |
| 2026-04-20 05:05 | 35.13784 | -95.58763 | 21093 ft | 298 kts | 277° |
| 2026-04-20 05:05 | 35.14069 | -95.61275 | 20841 ft | 298 kts | 277° |
| 2026-04-20 05:05 | 35.14356 | -95.63778 | 20596 ft | 297 kts | 277° |
| 2026-04-20 05:06 | 35.14644 | -95.66280 | 20356 ft | 297 kts | 277° |
| 2026-04-20 05:06 | 35.14929 | -95.68774 | 20110 ft | 296 kts | 277° |
| 2026-04-20 05:06 | 35.15210 | -95.71262 | 19867 ft | 295 kts | 277° |
| 2026-04-20 05:06 | 35.15492 | -95.73744 | 19631 ft | 295 kts | 277° |
| 2026-04-20 05:07 | 35.15773 | -95.76223 | 19389 ft | 294 kts | 277° |
| 2026-04-20 05:07 | 35.16053 | -95.78698 | 19153 ft | 294 kts | 277° |
| 2026-04-20 05:07 | 35.16326 | -95.81135 | 18928 ft | 293 kts | 277° |
| 2026-04-20 05:07 | 35.16603 | -95.83597 | 18995 ft | 293 kts | 277° |
| 2026-04-20 05:08 | 35.16879 | -95.86072 | 19024 ft | 294 kts | 277° |
| 2026-04-20 05:08 | 35.17156 | -95.88552 | 19027 ft | 294 kts | 277° |
| 2026-04-20 05:08 | 35.17433 | -95.91033 | 19027 ft | 295 kts | 277° |
| 2026-04-20 05:08 | 35.17709 | -95.93514 | 19028 ft | 295 kts | 277° |
| 2026-04-20 05:09 | 35.17981 | -95.95995 | 19024 ft | 295 kts | 277° |
| 2026-04-20 05:09 | 35.18255 | -95.98477 | 19022 ft | 295 kts | 277° |
| 2026-04-20 05:09 | 35.18533 | -96.00967 | 19020 ft | 295 kts | 277° |
| 2026-04-20 05:09 | 35.18810 | -96.03453 | 19023 ft | 295 kts | 277° |
| 2026-04-20 05:10 | 35.19084 | -96.05942 | 19022 ft | 295 kts | 277° |
| 2026-04-20 05:10 | 35.19356 | -96.08431 | 19020 ft | 296 kts | 277° |
| 2026-04-20 05:10 | 35.19628 | -96.10922 | 19024 ft | 296 kts | 277° |
| 2026-04-20 05:10 | 35.19901 | -96.13415 | 19022 ft | 296 kts | 277° |
| 2026-04-20 05:11 | 35.20175 | -96.15913 | 19021 ft | 296 kts | 277° |
| 2026-04-20 05:11 | 35.20450 | -96.18408 | 19020 ft | 296 kts | 277° |
| 2026-04-20 05:11 | 35.20726 | -96.20907 | 19021 ft | 297 kts | 277° |
| 2026-04-20 05:11 | 35.20997 | -96.23418 | 18890 ft | 297 kts | 277° |
| 2026-04-20 05:12 | 35.21250 | -96.25917 | 18651 ft | 296 kts | 277° |
| 2026-04-20 05:12 | 35.21493 | -96.28379 | 18392 ft | 295 kts | 277° |
| 2026-04-20 05:12 | 35.21739 | -96.30875 | 18123 ft | 295 kts | 277° |
| 2026-04-20 05:12 | 35.21985 | -96.33369 | 17857 ft | 295 kts | 277° |
| 2026-04-20 05:13 | 35.22231 | -96.35858 | 17597 ft | 295 kts | 277° |
| 2026-04-20 05:13 | 35.22477 | -96.38348 | 17335 ft | 295 kts | 278° |
| 2026-04-20 05:13 | 35.22722 | -96.40838 | 17076 ft | 295 kts | 278° |
| 2026-04-20 05:13 | 35.22968 | -96.43331 | 16818 ft | 295 kts | 278° |
| 2026-04-20 05:14 | 35.23214 | -96.45823 | 16566 ft | 295 kts | 278° |
| 2026-04-20 05:14 | 35.23460 | -96.48312 | 16315 ft | 295 kts | 279° |
| 2026-04-20 05:14 | 35.23705 | -96.50800 | 16064 ft | 295 kts | 279° |
| 2026-04-20 05:14 | 35.23947 | -96.53288 | 15820 ft | 295 kts | 279° |
| 2026-04-20 05:15 | 35.24186 | -96.55775 | 15575 ft | 294 kts | 279° |
| 2026-04-20 05:15 | 35.24424 | -96.58261 | 15328 ft | 294 kts | 279° |
| 2026-04-20 05:15 | 35.24664 | -96.60752 | 15088 ft | 295 kts | 279° |
| 2026-04-20 05:15 | 35.24899 | -96.63239 | 14849 ft | 295 kts | 279° |
| 2026-04-20 05:16 | 35.25068 | -96.65743 | 14600 ft | 295 kts | 277° |
| 2026-04-20 05:16 | 35.25186 | -96.68221 | 14377 ft | 296 kts | 277° |
| 2026-04-20 05:16 | 35.25288 | -96.70738 | 14145 ft | 296 kts | 277° |
| 2026-04-20 05:16 | 35.25386 | -96.73256 | 13879 ft | 296 kts | 277° |
| 2026-04-20 05:17 | 35.25485 | -96.75776 | 13613 ft | 296 kts | 277° |
| 2026-04-20 05:17 | 35.25590 | -96.78288 | 13353 ft | 296 kts | 277° |
| 2026-04-20 05:17 | 35.25699 | -96.80795 | 13093 ft | 294 kts | 278° |
| 2026-04-20 05:17 | 35.25807 | -96.83271 | 12823 ft | 288 kts | 278° |
| 2026-04-20 05:18 | 35.25917 | -96.85698 | 12575 ft | 284 kts | 278° |
| 2026-04-20 05:18 | 35.26027 | -96.88105 | 12320 ft | 282 kts | 278° |
| 2026-04-20 05:18 | 35.26138 | -96.90498 | 12066 ft | 282 kts | 278° |
| 2026-04-20 05:18 | 35.26248 | -96.92890 | 11817 ft | 282 kts | 279° |
| 2026-04-20 05:19 | 35.26357 | -96.95281 | 11569 ft | 282 kts | 279° |
| 2026-04-20 05:19 | 35.26465 | -96.97676 | 11317 ft | 282 kts | 279° |
| 2026-04-20 05:19 | 35.26573 | -97.00071 | 11072 ft | 282 kts | 279° |
| 2026-04-20 05:19 | 35.26679 | -97.02469 | 10830 ft | 282 kts | 279° |
| 2026-04-20 05:20 | 35.26784 | -97.04869 | 10589 ft | 283 kts | 279° |
| 2026-04-20 05:20 | 35.26900 | -97.07263 | 10347 ft | 279 kts | 280° |
| 2026-04-20 05:20 | 35.27008 | -97.09613 | 10104 ft | 274 kts | 279° |
| 2026-04-20 05:20 | 35.27183 | -97.11898 | 9835 ft | 264 kts | 288° |
| 2026-04-20 05:21 | 35.27640 | -97.14042 | 9564 ft | 257 kts | 292° |
| 2026-04-20 05:21 | 35.28138 | -97.16117 | 9303 ft | 252 kts | 292° |
| 2026-04-20 05:21 | 35.28644 | -97.18149 | 9050 ft | 249 kts | 292° |
| 2026-04-20 05:21 | 35.29154 | -97.20156 | 8797 ft | 248 kts | 292° |
| 2026-04-20 05:22 | 35.29672 | -97.22166 | 8538 ft | 247 kts | 292° |
| 2026-04-20 05:22 | 35.30196 | -97.24165 | 8282 ft | 246 kts | 292° |
| 2026-04-20 05:22 | 35.30729 | -97.26154 | 8032 ft | 245 kts | 292° |
| 2026-04-20 05:22 | 35.31268 | -97.28133 | 7779 ft | 244 kts | 292° |
| 2026-04-20 05:23 | 35.31807 | -97.30079 | 7533 ft | 243 kts | 292° |
| 2026-04-20 05:23 | 35.32365 | -97.32062 | 7285 ft | 243 kts | 292° |
| 2026-04-20 05:23 | 35.32915 | -97.33976 | 7041 ft | 237 kts | 292° |
| 2026-04-20 05:23 | 35.33460 | -97.35854 | 6791 ft | 232 kts | 292° |
| 2026-04-20 05:24 | 35.34014 | -97.37728 | 6550 ft | 231 kts | 292° |
| 2026-04-20 05:24 | 35.34562 | -97.39545 | 6293 ft | 227 kts | 292° |
| 2026-04-20 05:24 | 35.35123 | -97.41307 | 5912 ft | 219 kts | 297° |
| 2026-04-20 05:24 | 35.36107 | -97.42670 | 5411 ft | 216 kts | 330° |
| 2026-04-20 05:25 | 35.37528 | -97.43290 | 4855 ft | 220 kts | 343° |
| 2026-04-20 05:25 | 35.39014 | -97.43806 | 4308 ft | 223 kts | 342° |
| 2026-04-20 05:25 | 35.40517 | -97.44323 | 3811 ft | 225 kts | 343° |
| 2026-04-20 05:25 | 35.42033 | -97.44845 | 3323 ft | 227 kts | 343° |
| 2026-04-20 05:26 | 35.43553 | -97.45370 | 3025 ft | 225 kts | 342° |
| 2026-04-20 05:26 | 35.45075 | -97.45895 | 3001 ft | 229 kts | 343° |
| 2026-04-20 05:26 | 35.46610 | -97.46425 | 3002 ft | 230 kts | 342° |
| 2026-04-20 05:26 | 35.48153 | -97.46952 | 3004 ft | 230 kts | 343° |
| 2026-04-20 05:27 | 35.49645 | -97.47621 | 3000 ft | 227 kts | 326° |
| 2026-04-20 05:27 | 35.50897 | -97.48712 | 3001 ft | 214 kts | 319° |
| 2026-04-20 05:27 | 35.52050 | -97.49836 | 2991 ft | 209 kts | 318° |
| 2026-04-20 05:27 | 35.53163 | -97.50936 | 3013 ft | 201 kts | 317° |
| 2026-04-20 05:28 | 35.54242 | -97.51995 | 3000 ft | 196 kts | 318° |
| 2026-04-20 05:28 | 35.55308 | -97.53040 | 2995 ft | 196 kts | 318° |
| 2026-04-20 05:28 | 35.56322 | -97.54029 | 2999 ft | 183 kts | 317° |
| 2026-04-20 05:28 | 35.57164 | -97.55116 | 2991 ft | 171 kts | 290° |
| 2026-04-20 05:29 | 35.57235 | -97.56483 | 3004 ft | 158 kts | 247° |
| 2026-04-20 05:29 | 35.56757 | -97.57633 | 2996 ft | 146 kts | 235° |
| 2026-04-20 05:29 | 35.56218 | -97.58664 | 2990 ft | 141 kts | 232° |
| 2026-04-20 05:29 | 35.55457 | -97.59320 | 2994 ft | 138 kts | 183° |
| 2026-04-20 05:30 | 35.54545 | -97.58983 | 2986 ft | 137 kts | 162° |
| 2026-04-20 05:30 | 35.53625 | -97.58937 | 3001 ft | 133 kts | 189° |
| 2026-04-20 05:30 | 35.52698 | -97.58943 | 2993 ft | 133 kts | 180° |
| 2026-04-20 05:30 | 35.51779 | -97.58923 | 2993 ft | 131 kts | 181° |
| 2026-04-20 05:31 | 35.50881 | -97.58913 | 2991 ft | 128 kts | 181° |
| 2026-04-20 05:31 | 35.49990 | -97.58908 | 2994 ft | 128 kts | 181° |
| 2026-04-20 05:31 | 35.49401 | -97.58906 | 2953 ft | 128 kts | 181° |
| 2026-04-20 05:31 | 35.48517 | -97.58903 | 2834 ft | 125 kts | 181° |
| 2026-04-20 05:32 | 35.47659 | -97.58902 | 2684 ft | 123 kts | 181° |
| 2026-04-20 05:32 | 35.46813 | -97.58898 | 2541 ft | 121 kts | 181° |
| 2026-04-20 05:32 | 35.45977 | -97.58897 | 2414 ft | 120 kts | 181° |
| 2026-04-20 05:32 | 35.45145 | -97.58891 | 2262 ft | 119 kts | 181° |
| 2026-04-20 05:33 | 35.44309 | -97.58890 | 2057 ft | 121 kts | 180° |
| 2026-04-20 05:33 | 35.43458 | -97.58894 | 1907 ft | 124 kts | 180° |
| 2026-04-20 05:33 | 35.42586 | -97.58891 | 1748 ft | 126 kts | 180° |
| 2026-04-20 05:33 | 35.41706 | -97.58890 | 1591 ft | 127 kts | 179° |
| 2026-04-20 05:34 | 35.40836 | -97.58893 | 1413 ft | 126 kts | 179° |
| 2026-04-20 05:34 | 35.39968 | -97.58892 | 1298 ft | 118 kts | 179° |
| 2026-04-20 05:34 | 35.38852 | -97.58894 | 1294 ft | 38 kts | 180° |
| 2026-04-20 05:35 | 35.38634 | -97.58893 | 1293 ft | 18 kts | 180° |
| 2026-04-20 05:35 | 35.38550 | -97.58977 | 1294 ft | 17 kts | 258° |
| 2026-04-20 05:35 | 35.38618 | -97.59060 | 1294 ft | 16 kts | 358° |
| 2026-04-20 05:35 | 35.38729 | -97.59062 | 1291 ft | 16 kts | 359° |
| 2026-04-20 05:36 | 35.38835 | -97.59061 | 1292 ft | 14 kts | 0° |
| 2026-04-20 05:36 | 35.38923 | -97.59062 | 1293 ft | 11 kts | 359° |
| 2026-04-20 05:36 | 35.39000 | -97.59062 | 1293 ft | 15 kts | 0° |
| 2026-04-20 05:36 | 35.39150 | -97.59061 | 1291 ft | 19 kts | 360° |
| 2026-04-20 05:37 | 35.39217 | -97.59123 | 1292 ft | 12 kts | 273° |
| 2026-04-20 05:37 | 35.39225 | -97.59206 | 1294 ft | 8 kts | 309° |
| 2026-04-20 05:37 | 35.39270 | -97.59221 | 1294 ft | 6 kts | 357° |
| 2026-04-20 05:37 | 35.39312 | -97.59221 | 1294 ft | 7 kts | 360° |
| 2026-04-20 05:38 | 35.39388 | -97.59222 | 1295 ft | 11 kts | 359° |
| 2026-04-20 05:38 | 35.39442 | -97.59247 | 1297 ft | 7 kts | 309° |
| 2026-04-20 05:38 | 35.39455 | -97.59294 | 1297 ft | 5 kts | 287° |
| 2026-04-20 05:38 | 35.39466 | -97.59328 | 1297 ft | 4 kts | 298° |
| 2026-04-20 05:39 | 35.39478 | -97.59354 | 1297 ft | 3 kts | 298° |
| 2026-04-20 05:39 | 35.39483 | -97.59367 | 1297 ft | 0 kts | 298° |